sensor_id;sensor_type;location;lat;lon;timestamp;temperature;humidity
5711;DHT22;61291;52.524;13.422;2023-05-29T00:01:26;13.40;82.60
5711;DHT22;61291;52.524;13.422;2023-05-29T00:03:51;13.40;82.90
5711;DHT22;61291;52.524;13.422;2023-05-29T00:06:19;13.40;83.10
5711;DHT22;61291;52.524;13.422;2023-05-29T00:08:44;13.40;83.00
5711;DHT22;61291;52.524;13.422;2023-05-29T00:11:10;13.30;83.20
5711;DHT22;61291;52.524;13.422;2023-05-29T00:13:35;13.30;83.40
5711;DHT22;61291;52.524;13.422;2023-05-29T00:16:01;13.30;83.60
5711;DHT22;61291;52.524;13.422;2023-05-29T00:18:28;13.30;83.70
5711;DHT22;61291;52.524;13.422;2023-05-29T00:20:54;13.30;83.90
5711;DHT22;61291;52.524;13.422;2023-05-29T00:23:21;13.30;84.10
5711;DHT22;61291;52.524;13.422;2023-05-29T00:25:46;13.30;84.40
5711;DHT22;61291;52.524;13.422;2023-05-29T00:28:12;13.30;84.30
5711;DHT22;61291;52.524;13.422;2023-05-29T00:30:38;13.20;84.20
5711;DHT22;61291;52.524;13.422;2023-05-29T00:33:04;13.20;84.70
5711;DHT22;61291;52.524;13.422;2023-05-29T00:35:30;13.10;84.50
5711;DHT22;61291;52.524;13.422;2023-05-29T00:37:55;13.10;84.70
5711;DHT22;61291;52.524;13.422;2023-05-29T00:40:21;13.10;84.90
5711;DHT22;61291;52.524;13.422;2023-05-29T00:42:46;13.00;84.90
5711;DHT22;61291;52.524;13.422;2023-05-29T00:45:12;12.90;84.80
5711;DHT22;61291;52.524;13.422;2023-05-29T00:47:39;12.90;85.30
5711;DHT22;61291;52.524;13.422;2023-05-29T00:50:06;12.80;85.20
5711;DHT22;61291;52.524;13.422;2023-05-29T00:52:31;12.80;85.50
5711;DHT22;61291;52.524;13.422;2023-05-29T00:54:57;12.80;85.60
5711;DHT22;61291;52.524;13.422;2023-05-29T00:57:25;12.80;85.70
5711;DHT22;61291;52.524;13.422;2023-05-29T00:59:52;12.80;86.10
5711;DHT22;61291;52.524;13.422;2023-05-29T01:02:18;12.80;86.10
5711;DHT22;61291;52.524;13.422;2023-05-29T01:04:45;12.90;86.10
5711;DHT22;61291;52.524;13.422;2023-05-29T01:07:11;12.80;85.80
5711;DHT22;61291;52.524;13.422;2023-05-29T01:09:37;12.80;85.80
5711;DHT22;61291;52.524;13.422;2023-05-29T01:12:23;12.70;85.80
5711;DHT22;61291;52.524;13.422;2023-05-29T01:15:17;12.70;86.20
5711;DHT22;61291;52.524;13.422;2023-05-29T01:23:38;12.70;86.00
5711;DHT22;61291;52.524;13.422;2023-05-29T01:26:14;12.70;86.10
5711;DHT22;61291;52.524;13.422;2023-05-29T01:28:48;12.70;86.60
5711;DHT22;61291;52.524;13.422;2023-05-29T01:31:22;12.80;86.20
5711;DHT22;61291;52.524;13.422;2023-05-29T01:33:55;12.70;85.90
5711;DHT22;61291;52.524;13.422;2023-05-29T01:36:21;12.70;86.20
5711;DHT22;61291;52.524;13.422;2023-05-29T01:38:48;12.70;86.40
5711;DHT22;61291;52.524;13.422;2023-05-29T01:41:15;12.70;86.50
5711;DHT22;61291;52.524;13.422;2023-05-29T01:43:43;12.70;86.30
5711;DHT22;61291;52.524;13.422;2023-05-29T01:46:09;12.70;86.90
5711;DHT22;61291;52.524;13.422;2023-05-29T01:48:34;12.60;86.80
5711;DHT22;61291;52.524;13.422;2023-05-29T01:51:01;12.60;87.00
5711;DHT22;61291;52.524;13.422;2023-05-29T01:53:26;12.60;87.20
5711;DHT22;61291;52.524;13.422;2023-05-29T01:55:52;12.50;87.50
5711;DHT22;61291;52.524;13.422;2023-05-29T01:58:18;12.50;87.70
5711;DHT22;61291;52.524;13.422;2023-05-29T02:00:45;12.30;87.70
5711;DHT22;61291;52.524;13.422;2023-05-29T02:03:10;12.40;88.40
5711;DHT22;61291;52.524;13.422;2023-05-29T02:05:36;12.30;88.60
5711;DHT22;61291;52.524;13.422;2023-05-29T02:08:01;12.30;88.80
5711;DHT22;61291;52.524;13.422;2023-05-29T02:10:27;12.20;89.00
5711;DHT22;61291;52.524;13.422;2023-05-29T02:12:52;12.10;89.50
5711;DHT22;61291;52.524;13.422;2023-05-29T02:15:18;12.00;90.10
5711;DHT22;61291;52.524;13.422;2023-05-29T02:17:43;11.90;89.80
5711;DHT22;61291;52.524;13.422;2023-05-29T02:20:09;11.90;90.30
5711;DHT22;61291;52.524;13.422;2023-05-29T02:22:36;11.90;90.50
5711;DHT22;61291;52.524;13.422;2023-05-29T02:25:01;12.00;90.90
5711;DHT22;61291;52.524;13.422;2023-05-29T02:27:27;12.00;91.00
5711;DHT22;61291;52.524;13.422;2023-05-29T02:29:52;11.90;90.90
5711;DHT22;61291;52.524;13.422;2023-05-29T02:32:18;12.00;91.20
5711;DHT22;61291;52.524;13.422;2023-05-29T02:34:43;12.00;91.40
5711;DHT22;61291;52.524;13.422;2023-05-29T02:37:09;12.00;91.40
5711;DHT22;61291;52.524;13.422;2023-05-29T02:39:35;11.90;91.50
5711;DHT22;61291;52.524;13.422;2023-05-29T02:42:00;11.90;91.70
5711;DHT22;61291;52.524;13.422;2023-05-29T02:44:26;11.90;91.70
5711;DHT22;61291;52.524;13.422;2023-05-29T02:46:51;11.80;91.60
5711;DHT22;61291;52.524;13.422;2023-05-29T02:49:17;11.70;91.60
5711;DHT22;61291;52.524;13.422;2023-05-29T02:51:42;11.80;92.10
5711;DHT22;61291;52.524;13.422;2023-05-29T02:54:08;11.80;92.10
5711;DHT22;61291;52.524;13.422;2023-05-29T02:56:33;11.80;92.10
5711;DHT22;61291;52.524;13.422;2023-05-29T02:58:59;11.80;92.10
5711;DHT22;61291;52.524;13.422;2023-05-29T03:01:25;11.80;92.40
5711;DHT22;61291;52.524;13.422;2023-05-29T03:03:51;11.80;92.30
5711;DHT22;61291;52.524;13.422;2023-05-29T03:06:16;11.80;92.50
5711;DHT22;61291;52.524;13.422;2023-05-29T03:08:43;11.80;92.60
5711;DHT22;61291;52.524;13.422;2023-05-29T03:11:10;11.90;92.70
5711;DHT22;61291;52.524;13.422;2023-05-29T03:13:37;11.90;92.70
5711;DHT22;61291;52.524;13.422;2023-05-29T03:16:03;12.00;93.00
5711;DHT22;61291;52.524;13.422;2023-05-29T03:18:28;12.00;92.70
5711;DHT22;61291;52.524;13.422;2023-05-29T03:20:55;12.00;92.70
5711;DHT22;61291;52.524;13.422;2023-05-29T03:23:20;12.00;92.60
5711;DHT22;61291;52.524;13.422;2023-05-29T03:25:46;12.00;92.40
5711;DHT22;61291;52.524;13.422;2023-05-29T03:28:11;12.00;92.50
5711;DHT22;61291;52.524;13.422;2023-05-29T03:30:37;12.00;92.50
5711;DHT22;61291;52.524;13.422;2023-05-29T03:33:02;12.10;92.40
5711;DHT22;61291;52.524;13.422;2023-05-29T03:35:32;12.10;92.30
5711;DHT22;61291;52.524;13.422;2023-05-29T03:37:58;12.10;92.20
5711;DHT22;61291;52.524;13.422;2023-05-29T03:40:23;12.10;92.10
5711;DHT22;61291;52.524;13.422;2023-05-29T03:42:49;12.10;92.00
5711;DHT22;61291;52.524;13.422;2023-05-29T03:45:14;12.20;92.00
5711;DHT22;61291;52.524;13.422;2023-05-29T03:47:40;12.30;91.90
5711;DHT22;61291;52.524;13.422;2023-05-29T03:50:06;12.40;91.80
5711;DHT22;61291;52.524;13.422;2023-05-29T03:52:33;12.50;91.50
5711;DHT22;61291;52.524;13.422;2023-05-29T03:54:58;12.70;91.40
5711;DHT22;61291;52.524;13.422;2023-05-29T03:57:23;12.80;91.20
5711;DHT22;61291;52.524;13.422;2023-05-29T03:59:49;12.90;91.10
5711;DHT22;61291;52.524;13.422;2023-05-29T04:02:14;13.00;90.70
5711;DHT22;61291;52.524;13.422;2023-05-29T04:04:40;13.10;90.60
5711;DHT22;61291;52.524;13.422;2023-05-29T04:07:05;13.10;90.40
5711;DHT22;61291;52.524;13.422;2023-05-29T04:09:32;13.30;90.30
5711;DHT22;61291;52.524;13.422;2023-05-29T04:11:59;13.30;90.00
5711;DHT22;61291;52.524;13.422;2023-05-29T04:14:25;13.50;90.00
5711;DHT22;61291;52.524;13.422;2023-05-29T04:16:50;13.80;89.60
5711;DHT22;61291;52.524;13.422;2023-05-29T04:19:16;14.10;88.80
5711;DHT22;61291;52.524;13.422;2023-05-29T04:21:41;14.50;87.20
5711;DHT22;61291;52.524;13.422;2023-05-29T04:24:07;14.70;86.40
5711;DHT22;61291;52.524;13.422;2023-05-29T04:26:33;14.80;85.90
5711;DHT22;61291;52.524;13.422;2023-05-29T04:28:58;15.00;86.10
5711;DHT22;61291;52.524;13.422;2023-05-29T04:31:25;15.10;85.10
5711;DHT22;61291;52.524;13.422;2023-05-29T04:33:52;15.60;83.50
5711;DHT22;61291;52.524;13.422;2023-05-29T04:36:22;15.80;83.20
5711;DHT22;61291;52.524;13.422;2023-05-29T04:38:51;16.50;81.60
5711;DHT22;61291;52.524;13.422;2023-05-29T04:41:16;16.60;79.90
5711;DHT22;61291;52.524;13.422;2023-05-29T04:43:42;17.00;79.60
5711;DHT22;61291;52.524;13.422;2023-05-29T04:46:07;17.10;78.10
5711;DHT22;61291;52.524;13.422;2023-05-29T04:48:38;16.70;77.80
5711;DHT22;61291;52.524;13.422;2023-05-29T04:51:06;16.80;78.00
5711;DHT22;61291;52.524;13.422;2023-05-29T04:53:32;16.50;78.10
5711;DHT22;61291;52.524;13.422;2023-05-29T04:55:57;16.50;78.00
5711;DHT22;61291;52.524;13.422;2023-05-29T04:58:26;16.40;78.20
5711;DHT22;61291;52.524;13.422;2023-05-29T05:00:51;16.50;77.90
5711;DHT22;61291;52.524;13.422;2023-05-29T05:03:17;16.70;77.40
5711;DHT22;61291;52.524;13.422;2023-05-29T05:05:42;16.50;77.80
5711;DHT22;61291;52.524;13.422;2023-05-29T05:08:09;16.30;78.10
5711;DHT22;61291;52.524;13.422;2023-05-29T05:10:37;16.00;78.30
5711;DHT22;61291;52.524;13.422;2023-05-29T05:13:02;16.00;78.50
5711;DHT22;61291;52.524;13.422;2023-05-29T05:15:28;16.20;78.20
5711;DHT22;61291;52.524;13.422;2023-05-29T05:17:53;16.30;78.00
5711;DHT22;61291;52.524;13.422;2023-05-29T05:20:19;16.30;78.10
5711;DHT22;61291;52.524;13.422;2023-05-29T05:22:44;16.50;78.20
5711;DHT22;61291;52.524;13.422;2023-05-29T05:25:10;16.50;77.90
5711;DHT22;61291;52.524;13.422;2023-05-29T05:27:37;16.80;77.50
5711;DHT22;61291;52.524;13.422;2023-05-29T05:30:05;17.00;77.10
5711;DHT22;61291;52.524;13.422;2023-05-29T05:32:32;18.10;75.80
5711;DHT22;61291;52.524;13.422;2023-05-29T05:34:57;19.40;73.80
5711;DHT22;61291;52.524;13.422;2023-05-29T05:37:23;19.70;73.20
5711;DHT22;61291;52.524;13.422;2023-05-29T05:39:50;21.20;71.70
5711;DHT22;61291;52.524;13.422;2023-05-29T05:42:16;22.80;69.20
5711;DHT22;61291;52.524;13.422;2023-05-29T05:44:41;23.90;67.00
5711;DHT22;61291;52.524;13.422;2023-05-29T05:47:07;24.90;64.30
5711;DHT22;61291;52.524;13.422;2023-05-29T05:49:33;25.20;62.70
5711;DHT22;61291;52.524;13.422;2023-05-29T05:51:58;25.80;62.20
5711;DHT22;61291;52.524;13.422;2023-05-29T05:54:24;25.40;60.50
5711;DHT22;61291;52.524;13.422;2023-05-29T05:56:49;25.50;59.50
5711;DHT22;61291;52.524;13.422;2023-05-29T05:59:15;26.30;59.40
5711;DHT22;61291;52.524;13.422;2023-05-29T06:01:40;27.00;58.30
5711;DHT22;61291;52.524;13.422;2023-05-29T06:04:06;25.90;57.70
5711;DHT22;61291;52.524;13.422;2023-05-29T06:06:32;26.30;57.70
5711;DHT22;61291;52.524;13.422;2023-05-29T06:08:57;27.60;57.20
5711;DHT22;61291;52.524;13.422;2023-05-29T06:11:24;28.40;55.80
5711;DHT22;61291;52.524;13.422;2023-05-29T06:13:50;27.10;55.10
5711;DHT22;61291;52.524;13.422;2023-05-29T06:16:17;26.50;55.70
5711;DHT22;61291;52.524;13.422;2023-05-29T06:18:42;27.60;55.60
5711;DHT22;61291;52.524;13.422;2023-05-29T06:21:07;27.10;55.10
5711;DHT22;61291;52.524;13.422;2023-05-29T06:23:34;26.00;55.10
5711;DHT22;61291;52.524;13.422;2023-05-29T06:26:02;25.50;56.70
5711;DHT22;61291;52.524;13.422;2023-05-29T06:28:28;25.30;56.70
5711;DHT22;61291;52.524;13.422;2023-05-29T06:30:54;25.00;56.30
5711;DHT22;61291;52.524;13.422;2023-05-29T06:33:19;25.10;56.60
5711;DHT22;61291;52.524;13.422;2023-05-29T06:35:46;25.60;56.40
5711;DHT22;61291;52.524;13.422;2023-05-29T06:38:13;24.90;56.40
5711;DHT22;61291;52.524;13.422;2023-05-29T06:40:38;25.00;57.00
5711;DHT22;61291;52.524;13.422;2023-05-29T06:43:04;25.20;55.80
5711;DHT22;61291;52.524;13.422;2023-05-29T06:45:29;25.40;56.60
5711;DHT22;61291;52.524;13.422;2023-05-29T06:47:55;27.20;55.50
5711;DHT22;61291;52.524;13.422;2023-05-29T06:50:20;28.40;54.10
5711;DHT22;61291;52.524;13.422;2023-05-29T06:52:46;29.80;53.20
5711;DHT22;61291;52.524;13.422;2023-05-29T06:55:11;30.40;52.00
5711;DHT22;61291;52.524;13.422;2023-05-29T06:57:37;29.00;51.70
5711;DHT22;61291;52.524;13.422;2023-05-29T07:00:04;29.60;51.70
5711;DHT22;61291;52.524;13.422;2023-05-29T07:02:31;30.90;51.20
5711;DHT22;61291;52.524;13.422;2023-05-29T07:04:57;30.60;50.90
5711;DHT22;61291;52.524;13.422;2023-05-29T07:07:22;28.90;51.30
5711;DHT22;61291;52.524;13.422;2023-05-29T07:09:48;27.80;52.40
5711;DHT22;61291;52.524;13.422;2023-05-29T07:12:13;28.70;51.80
5711;DHT22;61291;52.524;13.422;2023-05-29T07:14:39;28.00;52.30
5711;DHT22;61291;52.524;13.422;2023-05-29T07:17:05;29.80;51.70
5711;DHT22;61291;52.524;13.422;2023-05-29T07:19:31;30.70;51.10
5711;DHT22;61291;52.524;13.422;2023-05-29T07:21:57;28.40;51.80
5711;DHT22;61291;52.524;13.422;2023-05-29T07:24:23;27.80;51.80
5711;DHT22;61291;52.524;13.422;2023-05-29T07:26:48;27.30;53.10
5711;DHT22;61291;52.524;13.422;2023-05-29T07:29:14;27.30;53.10
5711;DHT22;61291;52.524;13.422;2023-05-29T07:31:42;27.50;52.40
5711;DHT22;61291;52.524;13.422;2023-05-29T07:34:07;27.60;53.00
5711;DHT22;61291;52.524;13.422;2023-05-29T07:36:33;28.20;52.70
5711;DHT22;61291;52.524;13.422;2023-05-29T07:38:58;27.80;52.40
5711;DHT22;61291;52.524;13.422;2023-05-29T07:41:42;29.30;52.20
5711;DHT22;61291;52.524;13.422;2023-05-29T07:44:07;28.70;51.70
5711;DHT22;61291;52.524;13.422;2023-05-29T07:46:33;30.10;50.20
5711;DHT22;61291;52.524;13.422;2023-05-29T07:48:58;28.20;50.80
5711;DHT22;61291;52.524;13.422;2023-05-29T07:51:23;27.80;51.70
5711;DHT22;61291;52.524;13.422;2023-05-29T07:53:49;27.20;51.80
5711;DHT22;61291;52.524;13.422;2023-05-29T07:56:15;27.60;51.70
5711;DHT22;61291;52.524;13.422;2023-05-29T07:58:42;27.10;51.70
5711;DHT22;61291;52.524;13.422;2023-05-29T08:01:07;27.40;52.60
5711;DHT22;61291;52.524;13.422;2023-05-29T08:03:33;27.20;52.40
5711;DHT22;61291;52.524;13.422;2023-05-29T08:05:58;26.90;51.80
5711;DHT22;61291;52.524;13.422;2023-05-29T08:08:23;25.80;52.50
5711;DHT22;61291;52.524;13.422;2023-05-29T08:10:49;25.50;53.30
5711;DHT22;61291;52.524;13.422;2023-05-29T08:13:14;25.80;53.10
5711;DHT22;61291;52.524;13.422;2023-05-29T08:15:40;25.80;52.70
5711;DHT22;61291;52.524;13.422;2023-05-29T08:18:05;25.00;53.30
5711;DHT22;61291;52.524;13.422;2023-05-29T08:20:32;25.00;53.70
5711;DHT22;61291;52.524;13.422;2023-05-29T08:22:59;23.90;54.60
5711;DHT22;61291;52.524;13.422;2023-05-29T08:25:25;22.90;55.50
5711;DHT22;61291;52.524;13.422;2023-05-29T08:27:51;22.50;56.00
5711;DHT22;61291;52.524;13.422;2023-05-29T08:30:16;22.50;56.00
5711;DHT22;61291;52.524;13.422;2023-05-29T08:32:42;22.10;56.40
5711;DHT22;61291;52.524;13.422;2023-05-29T08:35:08;22.00;55.70
5711;DHT22;61291;52.524;13.422;2023-05-29T08:37:34;21.70;56.10
5711;DHT22;61291;52.524;13.422;2023-05-29T08:39:59;21.40;56.70
5711;DHT22;61291;52.524;13.422;2023-05-29T08:42:29;20.80;57.10
5711;DHT22;61291;52.524;13.422;2023-05-29T08:45:02;20.90;57.20
5711;DHT22;61291;52.524;13.422;2023-05-29T08:47:32;20.70;57.40
5711;DHT22;61291;52.524;13.422;2023-05-29T08:50:00;20.70;57.30
5711;DHT22;61291;52.524;13.422;2023-05-29T08:52:26;20.40;58.10
5711;DHT22;61291;52.524;13.422;2023-05-29T08:54:53;20.50;58.20
5711;DHT22;61291;52.524;13.422;2023-05-29T08:57:19;20.60;58.10
5711;DHT22;61291;52.524;13.422;2023-05-29T08:59:47;20.70;58.70
5711;DHT22;61291;52.524;13.422;2023-05-29T09:02:14;20.90;58.20
5711;DHT22;61291;52.524;13.422;2023-05-29T09:04:44;21.10;58.20
5711;DHT22;61291;52.524;13.422;2023-05-29T09:07:19;21.50;58.30
5711;DHT22;61291;52.524;13.422;2023-05-29T09:09:48;21.80;58.10
5711;DHT22;61291;52.524;13.422;2023-05-29T09:12:14;22.10;57.90
5711;DHT22;61291;52.524;13.422;2023-05-29T09:14:42;22.20;57.80
5711;DHT22;61291;52.524;13.422;2023-05-29T09:17:11;22.30;57.80
5711;DHT22;61291;52.524;13.422;2023-05-29T09:19:38;22.60;57.60
5711;DHT22;61291;52.524;13.422;2023-05-29T09:22:07;22.50;57.70
5711;DHT22;61291;52.524;13.422;2023-05-29T09:24:33;23.00;57.70
5711;DHT22;61291;52.524;13.422;2023-05-29T09:27:00;23.70;57.00
5711;DHT22;61291;52.524;13.422;2023-05-29T09:29:27;24.30;56.70
5711;DHT22;61291;52.524;13.422;2023-05-29T09:31:53;24.50;56.20
5711;DHT22;61291;52.524;13.422;2023-05-29T09:34:18;24.50;56.10
5711;DHT22;61291;52.524;13.422;2023-05-29T09:36:44;24.00;56.40
5711;DHT22;61291;52.524;13.422;2023-05-29T09:39:09;23.50;56.70
5711;DHT22;61291;52.524;13.422;2023-05-29T09:41:45;23.50;56.70
5711;DHT22;61291;52.524;13.422;2023-05-29T09:44:14;24.30;56.20
5711;DHT22;61291;52.524;13.422;2023-05-29T09:46:41;24.50;55.50
5711;DHT22;61291;52.524;13.422;2023-05-29T09:49:12;24.90;55.20
5711;DHT22;61291;52.524;13.422;2023-05-29T09:51:38;24.90;54.80
5711;DHT22;61291;52.524;13.422;2023-05-29T09:54:17;24.60;54.80
5711;DHT22;61291;52.524;13.422;2023-05-29T09:56:43;24.40;54.80
5711;DHT22;61291;52.524;13.422;2023-05-29T09:59:14;24.50;54.80
5711;DHT22;61291;52.524;13.422;2023-05-29T10:01:41;24.90;54.90
5711;DHT22;61291;52.524;13.422;2023-05-29T10:04:08;25.10;54.60
5711;DHT22;61291;52.524;13.422;2023-05-29T10:06:37;25.10;54.20
5711;DHT22;61291;52.524;13.422;2023-05-29T10:09:05;25.20;53.30
5711;DHT22;61291;52.524;13.422;2023-05-29T10:11:35;24.50;54.00
5711;DHT22;61291;52.524;13.422;2023-05-29T10:14:03;24.70;54.20
5711;DHT22;61291;52.524;13.422;2023-05-29T10:16:29;24.90;54.20
5711;DHT22;61291;52.524;13.422;2023-05-29T10:18:59;24.70;54.40
5711;DHT22;61291;52.524;13.422;2023-05-29T10:21:27;24.90;54.40
5711;DHT22;61291;52.524;13.422;2023-05-29T10:23:54;24.90;54.60
5711;DHT22;61291;52.524;13.422;2023-05-29T10:26:22;24.80;54.40
5711;DHT22;61291;52.524;13.422;2023-05-29T10:28:55;25.00;54.20
5711;DHT22;61291;52.524;13.422;2023-05-29T10:31:28;25.00;54.00
5711;DHT22;61291;52.524;13.422;2023-05-29T10:34:29;24.20;53.70
5711;DHT22;61291;52.524;13.422;2023-05-29T10:37:08;24.50;53.50
5711;DHT22;61291;52.524;13.422;2023-05-29T10:39:35;25.30;53.00
5711;DHT22;61291;52.524;13.422;2023-05-29T10:42:00;26.00;52.50
5711;DHT22;61291;52.524;13.422;2023-05-29T10:44:38;25.10;53.10
5711;DHT22;61291;52.524;13.422;2023-05-29T10:47:05;25.20;53.00
5711;DHT22;61291;52.524;13.422;2023-05-29T10:49:31;25.30;52.50
5711;DHT22;61291;52.524;13.422;2023-05-29T10:51:58;24.70;52.60
5711;DHT22;61291;52.524;13.422;2023-05-29T10:54:25;24.80;52.70
5711;DHT22;61291;52.524;13.422;2023-05-29T10:56:56;24.70;52.80
5711;DHT22;61291;52.524;13.422;2023-05-29T10:59:22;24.50;53.10
5711;DHT22;61291;52.524;13.422;2023-05-29T11:01:52;24.80;53.20
5711;DHT22;61291;52.524;13.422;2023-05-29T11:06:48;25.10;53.20
5711;DHT22;61291;52.524;13.422;2023-05-29T11:09:34;24.90;53.30
5711;DHT22;61291;52.524;13.422;2023-05-29T11:12:23;24.60;53.70
5711;DHT22;61291;52.524;13.422;2023-05-29T11:15:04;25.30;53.20
5711;DHT22;61291;52.524;13.422;2023-05-29T11:20:07;25.10;52.20
5711;DHT22;61291;52.524;13.422;2023-05-29T11:25:15;24.60;52.30
5711;DHT22;61291;52.524;13.422;2023-05-29T11:27:43;25.00;52.50
5711;DHT22;61291;52.524;13.422;2023-05-29T11:30:09;25.10;52.80
5711;DHT22;61291;52.524;13.422;2023-05-29T11:32:36;24.80;53.30
5711;DHT22;61291;52.524;13.422;2023-05-29T11:35:07;24.90;53.40
5711;DHT22;61291;52.524;13.422;2023-05-29T11:37:35;24.70;53.50
5711;DHT22;61291;52.524;13.422;2023-05-29T11:40:03;24.50;53.50
5711;DHT22;61291;52.524;13.422;2023-05-29T11:42:31;24.70;52.90
5711;DHT22;61291;52.524;13.422;2023-05-29T11:45:12;24.60;52.80
5711;DHT22;61291;52.524;13.422;2023-05-29T11:47:58;24.00;52.90
5711;DHT22;61291;52.524;13.422;2023-05-29T11:50:25;23.60;53.60
5711;DHT22;61291;52.524;13.422;2023-05-29T11:52:51;23.60;53.70
5711;DHT22;61291;52.524;13.422;2023-05-29T11:55:18;23.70;54.00
5711;DHT22;61291;52.524;13.422;2023-05-29T11:57:44;24.20;54.20
5711;DHT22;61291;52.524;13.422;2023-05-29T12:00:16;24.60;53.80
5711;DHT22;61291;52.524;13.422;2023-05-29T12:02:42;24.90;52.90
5711;DHT22;61291;52.524;13.422;2023-05-29T12:05:08;25.20;52.40
5711;DHT22;61291;52.524;13.422;2023-05-29T12:07:35;25.30;52.50
5711;DHT22;61291;52.524;13.422;2023-05-29T12:10:11;25.70;52.20
5711;DHT22;61291;52.524;13.422;2023-05-29T12:12:37;26.30;51.40
5711;DHT22;61291;52.524;13.422;2023-05-29T12:15:05;26.90;51.40
5711;DHT22;61291;52.524;13.422;2023-05-29T12:17:32;27.70;50.90
5711;DHT22;61291;52.524;13.422;2023-05-29T12:19:58;27.90;50.30
5711;DHT22;61291;52.524;13.422;2023-05-29T12:22:33;26.80;51.50
5711;DHT22;61291;52.524;13.422;2023-05-29T12:25:28;26.20;51.70
5711;DHT22;61291;52.524;13.422;2023-05-29T12:27:57;25.60;52.10
5711;DHT22;61291;52.524;13.422;2023-05-29T12:30:24;25.10;53.30
5711;DHT22;61291;52.524;13.422;2023-05-29T12:32:53;24.30;53.80
5711;DHT22;61291;52.524;13.422;2023-05-29T12:35:20;24.00;54.00
5711;DHT22;61291;52.524;13.422;2023-05-29T12:37:47;23.70;53.90
5711;DHT22;61291;52.524;13.422;2023-05-29T12:40:20;24.00;53.60
5711;DHT22;61291;52.524;13.422;2023-05-29T12:42:54;23.90;53.40
5711;DHT22;61291;52.524;13.422;2023-05-29T12:45:19;24.30;53.20
5711;DHT22;61291;52.524;13.422;2023-05-29T12:47:51;24.80;52.90
5711;DHT22;61291;52.524;13.422;2023-05-29T12:53:04;25.10;51.90
5711;DHT22;61291;52.524;13.422;2023-05-29T12:55:32;24.80;51.60
5711;DHT22;61291;52.524;13.422;2023-05-29T12:58:18;24.40;52.00
5711;DHT22;61291;52.524;13.422;2023-05-29T13:00:45;24.50;52.10
5711;DHT22;61291;52.524;13.422;2023-05-29T13:03:15;24.60;52.20
5711;DHT22;61291;52.524;13.422;2023-05-29T13:05:45;24.50;52.30
5711;DHT22;61291;52.524;13.422;2023-05-29T13:08:11;24.00;53.20
5711;DHT22;61291;52.524;13.422;2023-05-29T13:10:37;23.80;52.90
5711;DHT22;61291;52.524;13.422;2023-05-29T13:13:03;23.60;53.20
5711;DHT22;61291;52.524;13.422;2023-05-29T13:15:28;23.30;53.30
5711;DHT22;61291;52.524;13.422;2023-05-29T13:17:54;23.10;53.70
5711;DHT22;61291;52.524;13.422;2023-05-29T13:20:19;23.00;53.30
5711;DHT22;61291;52.524;13.422;2023-05-29T13:22:46;23.10;53.20
5711;DHT22;61291;52.524;13.422;2023-05-29T13:25:14;23.30;53.30
5711;DHT22;61291;52.524;13.422;2023-05-29T13:27:41;23.40;52.70
5711;DHT22;61291;52.524;13.422;2023-05-29T13:30:08;23.40;52.20
5711;DHT22;61291;52.524;13.422;2023-05-29T13:32:34;23.70;52.50
5711;DHT22;61291;52.524;13.422;2023-05-29T13:35:00;24.00;52.70
5711;DHT22;61291;52.524;13.422;2023-05-29T13:37:25;24.50;52.70
5711;DHT22;61291;52.524;13.422;2023-05-29T13:39:52;24.30;52.50
5711;DHT22;61291;52.524;13.422;2023-05-29T13:42:18;24.10;52.70
5711;DHT22;61291;52.524;13.422;2023-05-29T13:44:44;24.00;52.60
5711;DHT22;61291;52.524;13.422;2023-05-29T13:47:09;24.30;52.90
5711;DHT22;61291;52.524;13.422;2023-05-29T13:49:35;24.60;52.50
5711;DHT22;61291;52.524;13.422;2023-05-29T13:52:02;25.00;52.40
5711;DHT22;61291;52.524;13.422;2023-05-29T13:54:27;24.50;52.30
5711;DHT22;61291;52.524;13.422;2023-05-29T13:56:56;24.40;52.60
5711;DHT22;61291;52.524;13.422;2023-05-29T13:59:23;24.60;52.50
5711;DHT22;61291;52.524;13.422;2023-05-29T14:01:48;24.80;52.60
5711;DHT22;61291;52.524;13.422;2023-05-29T14:04:14;25.00;52.20
5711;DHT22;61291;52.524;13.422;2023-05-29T14:06:39;24.90;52.00
5711;DHT22;61291;52.524;13.422;2023-05-29T14:09:05;24.70;52.40
5711;DHT22;61291;52.524;13.422;2023-05-29T14:11:35;24.90;52.00
5711;DHT22;61291;52.524;13.422;2023-05-29T14:14:05;25.00;51.90
5711;DHT22;61291;52.524;13.422;2023-05-29T14:16:31;25.30;51.80
5711;DHT22;61291;52.524;13.422;2023-05-29T14:18:57;26.00;51.60
5711;DHT22;61291;52.524;13.422;2023-05-29T14:21:23;26.50;51.10
5711;DHT22;61291;52.524;13.422;2023-05-29T14:23:49;26.90;50.80
5711;DHT22;61291;52.524;13.422;2023-05-29T14:26:14;27.00;50.20
5711;DHT22;61291;52.524;13.422;2023-05-29T14:28:40;26.80;50.20
5711;DHT22;61291;52.524;13.422;2023-05-29T14:31:05;25.40;51.20
5711;DHT22;61291;52.524;13.422;2023-05-29T14:33:31;25.00;51.70
5711;DHT22;61291;52.524;13.422;2023-05-29T14:35:57;24.80;51.90
5711;DHT22;61291;52.524;13.422;2023-05-29T14:38:23;24.50;52.30
5711;DHT22;61291;52.524;13.422;2023-05-29T14:40:49;24.20;52.50
5711;DHT22;61291;52.524;13.422;2023-05-29T14:43:14;24.10;52.70
5711;DHT22;61291;52.524;13.422;2023-05-29T14:45:40;23.90;52.80
5711;DHT22;61291;52.524;13.422;2023-05-29T14:48:06;23.80;53.00
5711;DHT22;61291;52.524;13.422;2023-05-29T14:50:31;23.90;53.60
5711;DHT22;61291;52.524;13.422;2023-05-29T14:52:57;23.80;52.80
5711;DHT22;61291;52.524;13.422;2023-05-29T14:55:22;23.90;52.50
5711;DHT22;61291;52.524;13.422;2023-05-29T14:57:48;23.70;52.30
5711;DHT22;61291;52.524;13.422;2023-05-29T15:00:13;23.70;52.30
5711;DHT22;61291;52.524;13.422;2023-05-29T15:02:39;23.80;52.30
5711;DHT22;61291;52.524;13.422;2023-05-29T15:05:05;23.80;52.40
5711;DHT22;61291;52.524;13.422;2023-05-29T15:07:32;23.80;52.20
5711;DHT22;61291;52.524;13.422;2023-05-29T15:09:59;23.90;51.80
5711;DHT22;61291;52.524;13.422;2023-05-29T15:12:25;24.00;51.70
5711;DHT22;61291;52.524;13.422;2023-05-29T15:14:51;23.30;51.70
5711;DHT22;61291;52.524;13.422;2023-05-29T15:17:16;23.50;51.70
5711;DHT22;61291;52.524;13.422;2023-05-29T15:19:43;23.30;52.00
5711;DHT22;61291;52.524;13.422;2023-05-29T15:22:08;23.40;52.30
5711;DHT22;61291;52.524;13.422;2023-05-29T15:24:34;23.40;52.40
5711;DHT22;61291;52.524;13.422;2023-05-29T15:27:00;23.40;52.30
5711;DHT22;61291;52.524;13.422;2023-05-29T15:29:32;23.10;52.40
5711;DHT22;61291;52.524;13.422;2023-05-29T15:31:58;23.20;52.20
5711;DHT22;61291;52.524;13.422;2023-05-29T15:34:23;22.90;52.40
5711;DHT22;61291;52.524;13.422;2023-05-29T15:36:49;22.80;52.40
5711;DHT22;61291;52.524;13.422;2023-05-29T15:39:14;22.80;52.50
5711;DHT22;61291;52.524;13.422;2023-05-29T15:41:40;22.70;52.70
5711;DHT22;61291;52.524;13.422;2023-05-29T15:44:05;22.80;52.70
5711;DHT22;61291;52.524;13.422;2023-05-29T15:46:31;22.80;52.50